Time;durP1;ratioP1;P1;durP2;ratioP2;P2;SDS_P1;SDS_P2;PMS_P1;PMS_P2;Temp;Humidity;BMP_temperature;BMP_pressure;BME280_temperature;BME280_humidity;BME280_pressure;Samples;Min_cycle;Max_cycle;Signal;HPM_P1;HPM_P2
2023/07/07 00:00:51;;;;;;;4.85;4.38;;;;;;;;;;5034468;28;20434;-82
2023/07/07 00:03:17;;;;;;;5.00;4.60;;;;;;;;;;5035249;28;20383;-82
2023/07/07 00:05:43;;;;;;;5.47;4.85;;;;;;;;;;5035458;28;20417;-82
2023/07/07 00:08:11;;;;;;;5.20;4.53;;;;;;;;;;5017543;28;20923;-82
2023/07/07 00:10:37;;;;;;;4.85;4.45;;;;;;;;;;5034989;28;20426;-82
2023/07/07 00:13:04;;;;;;;5.10;4.70;;;;;;;;;;5035002;28;20417;-82
2023/07/07 00:15:30;;;;;;;5.00;4.60;;;;;;;;;;5017396;28;20395;-82
2023/07/07 00:17:56;;;;;;;4.90;4.50;;;;;;;;;;5034853;28;20395;-82
2023/07/07 00:20:22;;;;;;;4.73;4.33;;;;;;;;;;5045236;28;20455;-82
2023/07/07 00:22:48;;;;;;;5.20;4.80;;;;;;;;;;5037970;28;20470;-82
2023/07/07 00:25:14;;;;;;;5.38;4.97;;;;;;;;;;5034845;28;20868;-82
2023/07/07 00:27:40;;;;;;;5.28;4.78;;;;;;;;;;5034685;28;20425;-82
2023/07/07 00:30:07;;;;;;;5.10;4.60;;;;;;;;;;5034567;28;20852;-82
2023/07/07 00:32:33;;;;;;;5.32;4.82;;;;;;;;;;5034875;28;20494;-82
2023/07/07 00:34:59;;;;;;;4.97;4.57;;;;;;;;;;5034457;28;20881;-82
2023/07/07 00:37:25;;;;;;;5.30;4.80;;;;;;;;;;5034826;28;20390;-82
2023/07/07 00:39:51;;;;;;;5.20;4.72;;;;;;;;;;5034305;28;20379;-82
2023/07/07 00:42:17;;;;;;;5.22;4.72;;;;;;;;;;5017017;28;20383;-82
2023/07/07 00:45:02;;;;;;;4.90;4.50;;;;;;;;;;5034109;28;20474;-82
2023/07/07 00:47:28;;;;;;;5.40;4.90;;;;;;;;;;5016497;28;20916;-82
2023/07/07 00:49:54;;;;;;;5.07;4.68;;;;;;;;;;5034168;28;20891;-82
2023/07/07 00:52:20;;;;;;;4.70;4.30;;;;;;;;;;5034199;28;20406;-82
2023/07/07 00:54:46;;;;;;;4.75;4.35;;;;;;;;;;5034464;28;20971;-82
2023/07/07 00:57:12;;;;;;;5.00;4.60;;;;;;;;;;5033302;28;20948;-82
2023/07/07 00:59:40;;;;;;;5.00;4.50;;;;;;;;;;5033446;28;20474;-82
2023/07/07 01:02:09;;;;;;;5.65;5.15;;;;;;;;;;5033865;28;20737;-82
2023/07/07 01:04:35;;;;;;;5.13;4.63;;;;;;;;;;5033618;28;20383;-82
2023/07/07 01:07:08;;;;;;;5.18;4.68;;;;;;;;;;5032995;28;20399;-82
2023/07/07 01:09:34;;;;;;;5.30;4.80;;;;;;;;;;5023802;28;20397;-82
2023/07/07 01:12:00;;;;;;;5.57;5.07;;;;;;;;;;5033796;28;20449;-82
2023/07/07 01:14:27;;;;;;;4.90;4.50;;;;;;;;;;5033802;28;20379;-82
2023/07/07 01:16:58;;;;;;;5.20;4.70;;;;;;;;;;5034034;28;20387;-82
2023/07/07 01:19:44;;;;;;;5.07;4.68;;;;;;;;;;5023348;28;20405;-82
2023/07/07 01:22:13;;;;;;;5.38;4.78;;;;;;;;;;5042122;28;20868;-82
2023/07/07 01:24:47;;;;;;;5.55;5.05;;;;;;;;;;5033026;28;20390;-82
2023/07/07 01:27:16;;;;;;;5.10;4.45;;;;;;;;;;5033967;28;20415;-82
2023/07/07 01:29:57;;;;;;;5.13;4.63;;;;;;;;;;5033665;28;20780;-82
2023/07/07 01:32:25;;;;;;;5.60;4.97;;;;;;;;;;5033437;28;20861;-82
2023/07/07 01:34:54;;;;;;;5.18;4.78;;;;;;;;;;5033507;28;20387;-82
2023/07/07 01:37:20;;;;;;;5.15;4.72;;;;;;;;;;5033554;28;20457;-82
2023/07/07 01:39:46;;;;;;;5.30;4.80;;;;;;;;;;5033008;28;20414;-82
2023/07/07 01:42:18;;;;;;;4.82;4.43;;;;;;;;;;5041849;28;20388;-82
2023/07/07 01:44:56;;;;;;;4.90;4.50;;;;;;;;;;5038041;28;20387;-82
2023/07/07 01:47:32;;;;;;;5.25;4.80;;;;;;;;;;5033278;28;20407;-82
2023/07/07 01:50:09;;;;;;;5.50;5.10;;;;;;;;;;5033245;28;20792;-82
2023/07/07 01:52:37;;;;;;;5.15;4.75;;;;;;;;;;5033208;28;20391;-82
2023/07/07 01:55:09;;;;;;;4.73;4.33;;;;;;;;;;5032992;28;20918;-82
2023/07/07 01:57:37;;;;;;;5.53;5.03;;;;;;;;;;5032651;28;20392;-82
2023/07/07 02:00:03;;;;;;;5.15;4.75;;;;;;;;;;5032000;28;20379;-82
2023/07/07 02:02:29;;;;;;;5.75;4.55;;;;;;;;;;5032552;28;20421;-82
2023/07/07 02:04:55;;;;;;;5.10;4.68;;;;;;;;;;5032734;28;20411;-82
2023/07/07 02:07:21;;;;;;;5.10;4.60;;;;;;;;;;5032340;28;20403;-82
2023/07/07 02:09:47;;;;;;;4.90;4.50;;;;;;;;;;5032741;28;20437;-82
2023/07/07 02:12:13;;;;;;;5.20;4.73;;;;;;;;;;5031947;28;20857;-82
2023/07/07 02:14:39;;;;;;;5.45;4.95;;;;;;;;;;5032780;28;20473;-82
2023/07/07 02:17:05;;;;;;;5.90;4.97;;;;;;;;;;5032955;28;20379;-82
2023/07/07 02:19:31;;;;;;;4.82;4.30;;;;;;;;;;5036061;28;20380;-81
2023/07/07 02:21:57;;;;;;;4.88;4.47;;;;;;;;;;5042834;28;20749;-82
2023/07/07 02:24:23;;;;;;;5.43;4.93;;;;;;;;;;5032713;28;20402;-82
2023/07/07 02:26:50;;;;;;;5.75;5.20;;;;;;;;;;5028671;28;20414;-82
2023/07/07 02:29:16;;;;;;;5.10;4.60;;;;;;;;;;5024631;28;20743;-82
2023/07/07 02:31:42;;;;;;;5.07;4.57;;;;;;;;;;5036268;28;20430;-82
2023/07/07 02:34:08;;;;;;;5.00;4.50;;;;;;;;;;5046061;28;20385;-82
2023/07/07 02:36:36;;;;;;;4.88;4.45;;;;;;;;;;5050411;28;20390;-82
2023/07/07 02:39:03;;;;;;;4.90;4.50;;;;;;;;;;5048866;28;20386;-82
2023/07/07 02:41:29;;;;;;;4.88;4.47;;;;;;;;;;5042116;28;20379;-82
2023/07/07 02:43:55;;;;;;;5.00;4.60;;;;;;;;;;5048901;28;20396;-82
2023/07/07 02:46:21;;;;;;;5.32;4.88;;;;;;;;;;5037446;28;20387;-82
2023/07/07 02:48:47;;;;;;;5.00;4.57;;;;;;;;;;5048874;28;20388;-82
2023/07/07 02:51:13;;;;;;;6.03;5.00;;;;;;;;;;5028609;28;20405;-82
2023/07/07 02:53:39;;;;;;;4.90;4.50;;;;;;;;;;5047394;28;20377;-82
2023/07/07 02:56:06;;;;;;;5.07;4.57;;;;;;;;;;5048403;28;20389;-82
2023/07/07 02:58:32;;;;;;;5.38;4.88;;;;;;;;;;5045548;28;20448;-82
2023/07/07 03:01:09;;;;;;;6.07;4.90;;;;;;;;;;5030987;28;20401;-82
2023/07/07 03:03:35;;;;;;;6.03;5.38;;;;;;;;;;5042217;28;20379;-82
2023/07/07 03:06:05;;;;;;;5.25;4.75;;;;;;;;;;5045551;28;20394;-81
2023/07/07 03:08:31;;;;;;;6.05;4.97;;;;;;;;;;5043747;28;20508;-82
2023/07/07 03:10:57;;;;;;;5.07;4.68;;;;;;;;;;5040226;28;20868;-82
2023/07/07 03:13:23;;;;;;;5.10;4.70;;;;;;;;;;5031442;28;20554;-82
2023/07/07 03:15:49;;;;;;;4.77;4.37;;;;;;;;;;5032765;28;20461;-82
2023/07/07 03:18:15;;;;;;;5.50;5.00;;;;;;;;;;5032062;28;20868;-82
2023/07/07 03:20:47;;;;;;;5.32;4.85;;;;;;;;;;5045407;28;20377;-82
2023/07/07 03:23:13;;;;;;;5.75;5.20;;;;;;;;;;5022322;28;20409;-82
2023/07/07 03:25:39;;;;;;;5.80;5.15;;;;;;;;;;5036215;28;20391;-82
2023/07/07 03:28:05;;;;;;;6.68;5.50;;;;;;;;;;5036027;28;20410;-82
2023/07/07 03:30:34;;;;;;;5.25;4.75;;;;;;;;;;5036080;28;20454;-82
2023/07/07 03:33:00;;;;;;;5.70;5.15;;;;;;;;;;5038370;28;20470;-81
2023/07/07 03:35:26;;;;;;;5.30;4.80;;;;;;;;;;5036871;28;20776;-81
2023/07/07 03:37:52;;;;;;;7.95;5.35;;;;;;;;;;5035306;28;20420;-81
2023/07/07 03:40:18;;;;;;;5.05;4.53;;;;;;;;;;5035597;28;20416;-80
2023/07/07 03:42:44;;;;;;;5.13;4.68;;;;;;;;;;5031401;28;20801;-82
2023/07/07 03:45:10;;;;;;;5.30;4.80;;;;;;;;;;5040233;28;20396;-82
2023/07/07 03:47:36;;;;;;;6.03;5.18;;;;;;;;;;5047369;28;20412;-79
2023/07/07 03:50:02;;;;;;;10.07;5.55;;;;;;;;;;5045563;28;20385;-83
2023/07/07 03:52:29;;;;;;;14.35;5.28;;;;;;;;;;5044629;28;20403;-84
2023/07/07 03:54:55;;;;;;;5.40;4.60;;;;;;;;;;5041052;28;20387;-83
2023/07/07 03:57:21;;;;;;;5.30;4.90;;;;;;;;;;5041080;28;20477;-83
2023/07/07 03:59:47;;;;;;;4.82;4.40;;;;;;;;;;5037268;28;20436;-82
2023/07/07 04:02:13;;;;;;;4.95;4.55;;;;;;;;;;5050253;28;20377;-86
2023/07/07 04:04:39;;;;;;;5.23;4.73;;;;;;;;;;5047727;28;20427;-84
2023/07/07 04:07:05;;;;;;;5.43;4.93;;;;;;;;;;5026063;28;20906;-82
2023/07/07 04:09:31;;;;;;;6.50;4.90;;;;;;;;;;5044628;28;20443;-81
2023/07/07 04:11:57;;;;;;;5.45;4.95;;;;;;;;;;5041637;28;20429;-84
2023/07/07 04:14:27;;;;;;;4.82;4.43;;;;;;;;;;5041286;28;20429;-82
2023/07/07 04:16:53;;;;;;;5.00;4.55;;;;;;;;;;5039594;28;20387;-82
2023/07/07 04:19:19;;;;;;;5.17;4.60;;;;;;;;;;5035661;28;20779;-83
2023/07/07 04:21:45;;;;;;;5.35;4.68;;;;;;;;;;5043615;28;20383;-82
2023/07/07 04:24:11;;;;;;;5.47;4.90;;;;;;;;;;5040379;28;20785;-82
2023/07/07 04:26:40;;;;;;;5.07;4.68;;;;;;;;;;5036993;28;20413;-84
2023/07/07 04:29:06;;;;;;;6.17;4.70;;;;;;;;;;5034731;28;20414;-83
2023/07/07 04:31:32;;;;;;;4.93;4.53;;;;;;;;;;5038705;28;20415;-83
2023/07/07 04:33:58;;;;;;;5.20;4.70;;;;;;;;;;5034888;28;20411;-84
2023/07/07 04:36:24;;;;;;;5.00;4.60;;;;;;;;;;5034743;28;20386;-84
2023/07/07 04:38:50;;;;;;;4.97;4.57;;;;;;;;;;5035046;28;20379;-84
2023/07/07 04:41:21;;;;;;;5.13;4.63;;;;;;;;;;5044451;28;20459;-84
2023/07/07 04:43:48;;;;;;;5.00;4.50;;;;;;;;;;5021869;28;20408;-83
2023/07/07 04:46:16;;;;;;;5.25;4.75;;;;;;;;;;5035735;28;20876;-84
2023/07/07 04:48:42;;;;;;;5.35;4.65;;;;;;;;;;5045234;28;20408;-84
2023/07/07 04:51:10;;;;;;;5.20;4.70;;;;;;;;;;5038528;28;20485;-84
2023/07/07 04:53:37;;;;;;;4.87;4.43;;;;;;;;;;5039280;28;20383;-84
2023/07/07 04:56:03;;;;;;;5.77;5.20;;;;;;;;;;5035681;28;20398;-85
2023/07/07 04:58:29;;;;;;;5.00;4.50;;;;;;;;;;5036618;28;20378;-84
2023/07/07 05:01:06;;;;;;;6.30;5.00;;;;;;;;;;5014147;28;20440;-89
2023/07/07 05:03:32;;;;;;;5.30;4.80;;;;;;;;;;5038770;28;20379;-89
2023/07/07 05:05:58;;;;;;;5.03;4.53;;;;;;;;;;5042825;28;20468;-89
2023/07/07 05:08:24;;;;;;;4.80;4.40;;;;;;;;;;5040765;28;20410;-90
2023/07/07 05:10:50;;;;;;;5.05;4.65;;;;;;;;;;5039651;28;20387;-90
2023/07/07 05:13:16;;;;;;;5.20;4.78;;;;;;;;;;5040366;28;20375;-89
2023/07/07 05:15:42;;;;;;;4.73;4.33;;;;;;;;;;5034419;28;20879;-91
2023/07/07 05:18:08;;;;;;;5.53;5.05;;;;;;;;;;5035670;28;20410;-89
2023/07/07 05:20:34;;;;;;;5.20;4.30;;;;;;;;;;5034375;28;20813;-89
2023/07/07 05:23:00;;;;;;;5.13;4.50;;;;;;;;;;5033881;28;20403;-90
2023/07/07 05:25:26;;;;;;;4.80;4.40;;;;;;;;;;5034633;28;20891;-90
2023/07/07 05:27:52;;;;;;;4.75;4.35;;;;;;;;;;5034841;28;20568;-90
2023/07/07 05:30:18;;;;;;;4.53;4.13;;;;;;;;;;5034519;28;20384;-91
2023/07/07 05:32:44;;;;;;;5.10;4.70;;;;;;;;;;5033105;28;20840;-89
2023/07/07 05:35:12;;;;;;;4.55;4.15;;;;;;;;;;5034148;28;20389;-91
2023/07/07 05:37:38;;;;;;;5.00;4.43;;;;;;;;;;5034297;28;20387;-91
2023/07/07 05:40:05;;;;;;;5.35;4.70;;;;;;;;;;5016196;28;20422;-90
2023/07/07 05:42:31;;;;;;;4.68;4.28;;;;;;;;;;5034593;28;20398;-91
2023/07/07 05:44:57;;;;;;;5.18;4.68;;;;;;;;;;5034054;28;20390;-92
2023/07/07 05:47:23;;;;;;;6.18;4.30;;;;;;;;;;5033461;28;20407;-91
2023/07/07 05:49:52;;;;;;;4.72;4.32;;;;;;;;;;5033623;28;20761;-91
2023/07/07 05:52:18;;;;;;;5.15;4.65;;;;;;;;;;5036271;28;20415;-92
2023/07/07 05:54:44;;;;;;;6.50;4.47;;;;;;;;;;5033326;28;20458;-90
2023/07/07 05:57:10;;;;;;;5.27;4.77;;;;;;;;;;5033881;28;20864;-91
2023/07/07 05:59:36;;;;;;;14.05;5.32;;;;;;;;;;5033514;28;20394;-92
2023/07/07 06:02:02;;;;;;;9.07;4.50;;;;;;;;;;5033618;28;20470;-91
2023/07/07 06:04:27;;;;;;;5.18;4.38;;;;;;;;;;5034519;28;20768;-91
2023/07/07 06:06:53;;;;;;;5.25;4.57;;;;;;;;;;5033156;28;20579;-87
2023/07/07 06:09:19;;;;;;;5.05;4.60;;;;;;;;;;5032875;28;20386;-89
2023/07/07 06:11:47;;;;;;;4.95;4.45;;;;;;;;;;5032881;28;20849;-89
2023/07/07 06:14:13;;;;;;;4.70;4.30;;;;;;;;;;5033303;28;20379;-87
2023/07/07 06:16:39;;;;;;;8.57;4.80;;;;;;;;;;5034787;28;20788;-88
2023/07/07 06:19:05;;;;;;;6.23;4.40;;;;;;;;;;5033119;28;20424;-88
2023/07/07 06:21:31;;;;;;;4.57;4.17;;;;;;;;;;5046996;28;20438;-86
2023/07/07 06:23:57;;;;;;;4.55;4.15;;;;;;;;;;5032936;28;20387;-86
2023/07/07 06:26:23;;;;;;;6.57;4.38;;;;;;;;;;5031833;28;20441;-85
2023/07/07 06:28:49;;;;;;;4.70;4.20;;;;;;;;;;5032659;28;20844;-86
2023/07/07 06:31:15;;;;;;;4.40;4.00;;;;;;;;;;5038237;28;20375;-88
2023/07/07 06:33:42;;;;;;;4.63;4.03;;;;;;;;;;5032301;28;20776;-86
2023/07/07 06:36:08;;;;;;;4.45;4.05;;;;;;;;;;5035725;28;20411;-88
2023/07/07 06:38:34;;;;;;;4.43;4.03;;;;;;;;;;5039892;28;20393;-88
2023/07/07 06:41:00;;;;;;;4.55;4.22;;;;;;;;;;5049009;28;20423;-88
2023/07/07 06:43:26;;;;;;;4.90;3.50;;;;;;;;;;5047275;28;20464;-88
2023/07/07 06:45:57;;;;;;;5.80;4.00;;;;;;;;;;5045862;28;20746;-89
2023/07/07 06:48:23;;;;;;;4.97;3.88;;;;;;;;;;5025466;28;20401;-88
2023/07/07 06:50:49;;;;;;;4.30;3.75;;;;;;;;;;5027216;28;20427;-88
2023/07/07 06:53:15;;;;;;;4.53;4.13;;;;;;;;;;5040917;28;20462;-89
2023/07/07 06:55:41;;;;;;;4.30;3.90;;;;;;;;;;5046195;28;20377;-89
2023/07/07 06:58:09;;;;;;;4.10;3.78;;;;;;;;;;5040253;28;20383;-89
2023/07/07 07:00:35;;;;;;;4.50;3.80;;;;;;;;;;5040248;28;20413;-89
2023/07/07 07:03:01;;;;;;;5.95;3.70;;;;;;;;;;5040395;28;20391;-89
2023/07/07 07:05:27;;;;;;;5.40;3.90;;;;;;;;;;5037191;28;20391;-87
2023/07/07 07:07:53;;;;;;;5.88;3.97;;;;;;;;;;5036367;28;20434;-87
2023/07/07 07:10:19;;;;;;;3.95;3.65;;;;;;;;;;5019372;28;20414;-90
2023/07/07 07:12:45;;;;;;;3.70;3.40;;;;;;;;;;5036739;28;20387;-91
2023/07/07 07:15:11;;;;;;;4.13;3.72;;;;;;;;;;5019221;28;20382;-89
2023/07/07 07:17:37;;;;;;;4.45;3.38;;;;;;;;;;5036779;28;20855;-91
2023/07/07 07:20:05;;;;;;;4.35;3.67;;;;;;;;;;5044930;28;20425;-90
2023/07/07 07:22:30;;;;;;;4.40;3.85;;;;;;;;;;5038042;28;20383;-90
2023/07/07 07:24:56;;;;;;;4.10;3.70;;;;;;;;;;5015137;28;20498;-89
2023/07/07 07:27:22;;;;;;;3.88;3.30;;;;;;;;;;5031628;28;20514;-91
2023/07/07 07:29:51;;;;;;;3.92;3.60;;;;;;;;;;5032111;28;20395;-90
2023/07/07 07:32:17;;;;;;;4.22;3.50;;;;;;;;;;5032254;28;20375;-87
2023/07/07 07:34:43;;;;;;;5.57;3.65;;;;;;;;;;5031841;28;20865;-87
2023/07/07 07:37:09;;;;;;;4.50;3.60;;;;;;;;;;5032201;28;20381;-85
2023/07/07 07:39:36;;;;;;;3.90;3.50;;;;;;;;;;5031623;28;20458;-86
2023/07/07 07:42:02;;;;;;;4.28;3.75;;;;;;;;;;5030543;28;20394;-85
2023/07/07 07:44:28;;;;;;;4.70;3.30;;;;;;;;;;5031450;28;20402;-86
2023/07/07 07:46:55;;;;;;;3.75;3.25;;;;;;;;;;5031229;28;20419;-86
2023/07/07 07:49:22;;;;;;;3.67;3.35;;;;;;;;;;5031449;28;20387;-87
2023/07/07 07:51:48;;;;;;;4.95;3.47;;;;;;;;;;5045245;28;20417;-86
2023/07/07 07:54:16;;;;;;;6.30;3.90;;;;;;;;;;5031858;28;20387;-87
2023/07/07 07:56:42;;;;;;;3.50;3.20;;;;;;;;;;5031754;28;20413;-86
2023/07/07 07:59:08;;;;;;;5.90;4.03;;;;;;;;;;5031707;28;20406;-86
2023/07/07 08:01:34;;;;;;;5.20;4.03;;;;;;;;;;5031446;28;20431;-87
2023/07/07 08:04:00;;;;;;;4.43;3.72;;;;;;;;;;5031346;28;20414;-86
2023/07/07 08:06:26;;;;;;;3.90;3.55;;;;;;;;;;5031412;28;20395;-86
2023/07/07 08:08:52;;;;;;;4.68;3.60;;;;;;;;;;5032132;28;20379;-86
2023/07/07 08:11:20;;;;;;;4.10;3.33;;;;;;;;;;5035073;28;20992;-86
2023/07/07 08:13:46;;;;;;;4.25;3.63;;;;;;;;;;5034865;28;20391;-86
2023/07/07 08:16:13;;;;;;;4.40;3.75;;;;;;;;;;5035191;28;20394;-86
2023/07/07 08:18:39;;;;;;;5.10;3.03;;;;;;;;;;5034739;28;20892;-87
2023/07/07 08:21:06;;;;;;;5.00;3.58;;;;;;;;;;5048871;28;20851;-85
2023/07/07 08:23:32;;;;;;;3.90;3.50;;;;;;;;;;5035004;28;20474;-85
2023/07/07 08:25:59;;;;;;;5.50;3.42;;;;;;;;;;5034843;28;20399;-86
2023/07/07 08:28:25;;;;;;;5.25;3.45;;;;;;;;;;5034899;28;20411;-88
2023/07/07 08:30:51;;;;;;;3.28;2.90;;;;;;;;;;5034883;28;20381;-84
2023/07/07 08:33:17;;;;;;;6.00;3.38;;;;;;;;;;5034641;28;20379;-87
2023/07/07 08:35:43;;;;;;;6.28;3.30;;;;;;;;;;5033932;28;20410;-85
2023/07/07 08:38:09;;;;;;;5.90;3.40;;;;;;;;;;5046633;28;20378;-88
2023/07/07 08:40:42;;;;;;;4.65;3.58;;;;;;;;;;5048794;28;20389;-86
2023/07/07 08:43:09;;;;;;;3.92;3.30;;;;;;;;;;5045638;28;20769;-85
2023/07/07 08:45:35;;;;;;;4.30;3.30;;;;;;;;;;5049359;28;20405;-85
2023/07/07 08:48:19;;;;;;;3.67;3.25;;;;;;;;;;5047375;28;20474;-87
2023/07/07 08:50:49;;;;;;;6.72;3.67;;;;;;;;;;5034463;28;20747;-85
2023/07/07 08:53:21;;;;;;;5.10;3.35;;;;;;;;;;5050827;28;20387;-86
2023/07/07 08:55:47;;;;;;;4.28;3.47;;;;;;;;;;5052723;28;20389;-88
2023/07/07 08:58:29;;;;;;;4.10;3.22;;;;;;;;;;5050756;28;20378;-87
2023/07/07 09:00:58;;;;;;;3.78;3.33;;;;;;;;;;5052542;28;20874;-86
2023/07/07 09:03:36;;;;;;;3.40;3.10;;;;;;;;;;5042508;28;20449;-86
2023/07/07 09:06:05;;;;;;;3.97;3.35;;;;;;;;;;5049444;28;20383;-87
2023/07/07 09:08:40;;;;;;;3.55;3.03;;;;;;;;;;5047397;28;21993;-85
2023/07/07 09:11:06;;;;;;;3.90;3.50;;;;;;;;;;5052379;28;20377;-86
2023/07/07 09:13:33;;;;;;;3.88;3.10;;;;;;;;;;5046461;28;20389;-87
2023/07/07 09:16:02;;;;;;;3.58;3.13;;;;;;;;;;5052406;28;20449;-85
2023/07/07 09:18:39;;;;;;;4.32;3.15;;;;;;;;;;5051696;28;20385;-85
2023/07/07 09:21:11;;;;;;;3.47;3.00;;;;;;;;;;5044193;28;20373;-87
2023/07/07 09:23:39;;;;;;;3.53;3.22;;;;;;;;;;5033973;28;20387;-86
2023/07/07 09:26:26;;;;;;;4.47;3.13;;;;;;;;;;5033288;28;20434;-85
2023/07/07 09:28:54;;;;;;;7.75;3.10;;;;;;;;;;5033757;28;20502;-84
2023/07/07 09:31:20;;;;;;;3.73;3.40;;;;;;;;;;5033481;28;20544;-87
2023/07/07 09:33:46;;;;;;;3.70;3.13;;;;;;;;;;5033814;28;20410;-84
2023/07/07 09:36:21;;;;;;;3.53;3.20;;;;;;;;;;5033526;28;20862;-85
2023/07/07 09:38:53;;;;;;;3.00;2.70;;;;;;;;;;5033612;28;20498;-85
2023/07/07 09:41:19;;;;;;;3.47;2.97;;;;;;;;;;5033578;28;20419;-85
2023/07/07 09:43:54;;;;;;;5.03;3.35;;;;;;;;;;5033414;28;20386;-86
2023/07/07 09:46:29;;;;;;;3.47;3.17;;;;;;;;;;5033242;28;20387;-86
2023/07/07 09:49:08;;;;;;;5.43;3.08;;;;;;;;;;5033458;28;20392;-85
2023/07/07 09:51:34;;;;;;;3.40;2.97;;;;;;;;;;5033545;28;20403;-86
2023/07/07 09:54:00;;;;;;;4.80;2.95;;;;;;;;;;5031103;28;20445;-86
2023/07/07 09:56:29;;;;;;;7.70;3.28;;;;;;;;;;5033294;28;20379;-86
2023/07/07 09:59:02;;;;;;;4.78;2.92;;;;;;;;;;5019375;28;20379;-85
2023/07/07 10:01:31;;;;;;;5.13;2.95;;;;;;;;;;5033243;28;20405;-85
2023/07/07 10:03:58;;;;;;;3.67;3.35;;;;;;;;;;5032961;28;20383;-85
2023/07/07 10:06:27;;;;;;;4.80;3.13;;;;;;;;;;5032907;28;20411;-87
2023/07/07 10:08:53;;;;;;;3.55;3.05;;;;;;;;;;5032991;28;20406;-85
2023/07/07 10:11:25;;;;;;;3.30;3.00;;;;;;;;;;5033097;28;20745;-87
2023/07/07 10:13:52;;;;;;;4.35;3.00;;;;;;;;;;5032983;28;20379;-87
2023/07/07 10:16:30;;;;;;;4.10;2.83;;;;;;;;;;5032846;28;20413;-85
2023/07/07 10:19:01;;;;;;;4.85;3.42;;;;;;;;;;5032825;28;20391;-87
2023/07/07 10:21:27;;;;;;;3.67;2.97;;;;;;;;;;5046976;28;20418;-86
2023/07/07 10:23:53;;;;;;;4.47;3.07;;;;;;;;;;5032930;28;20481;-86
2023/07/07 10:26:19;;;;;;;5.47;3.20;;;;;;;;;;5032817;28;20852;-85
2023/07/07 10:28:46;;;;;;;3.50;2.80;;;;;;;;;;5032881;28;20411;-85
2023/07/07 10:31:12;;;;;;;4.47;3.00;;;;;;;;;;5014615;28;20872;-88
2023/07/07 10:33:39;;;;;;;4.00;3.50;;;;;;;;;;5032285;28;20440;-88
2023/07/07 10:36:18;;;;;;;7.10;3.35;;;;;;;;;;5032695;28;20419;-87
2023/07/07 10:38:45;;;;;;;5.05;2.90;;;;;;;;;;5020386;28;20379;-87
2023/07/07 10:41:11;;;;;;;3.72;3.00;;;;;;;;;;5014732;28;20890;-87
2023/07/07 10:43:37;;;;;;;4.50;3.17;;;;;;;;;;5032533;28;20466;-87
2023/07/07 10:46:03;;;;;;;5.03;3.30;;;;;;;;;;5032865;28;20386;-85
2023/07/07 10:48:29;;;;;;;3.53;3.22;;;;;;;;;;5033100;28;20411;-86
2023/07/07 10:51:02;;;;;;;3.20;2.90;;;;;;;;;;5032897;28;20415;-86
2023/07/07 10:53:54;;;;;;;4.22;3.10;;;;;;;;;;5032273;28;20390;-89
2023/07/07 10:56:23;;;;;;;3.70;3.38;;;;;;;;;;5032050;28;20375;-89
2023/07/07 10:58:59;;;;;;;4.45;3.40;;;;;;;;;;5032799;28;20391;-91
2023/07/07 11:01:44;;;;;;;4.22;2.92;;;;;;;;;;5068292;22;20967;-90
2023/07/07 11:04:20;;;;;;;4.70;3.40;;;;;;;;;;5072996;28;20429;-91
2023/07/07 11:07:00;;;;;;;4.80;3.40;;;;;;;;;;5068751;28;20945;-91
2023/07/07 11:09:52;;;;;;;3.28;2.92;;;;;;;;;;5071412;28;20372;-90
2023/07/07 11:12:38;;;;;;;5.22;3.33;;;;;;;;;;5044109;28;20879;-90
2023/07/07 11:15:13;;;;;;;4.03;3.15;;;;;;;;;;5046616;28;20751;-90
2023/07/07 11:17:42;;;;;;;4.55;3.35;;;;;;;;;;5053411;28;20373;-91
2023/07/07 11:20:08;;;;;;;3.45;3.13;;;;;;;;;;5052157;28;20380;-91
2023/07/07 11:22:56;;;;;;;4.35;3.40;;;;;;;;;;5052285;28;20381;-90
2023/07/07 11:25:41;;;;;;;5.63;4.10;;;;;;;;;;5043136;28;20373;-90
2023/07/07 11:28:07;;;;;;;4.80;3.00;;;;;;;;;;5052482;28;20459;-92
2023/07/07 11:30:39;;;;;;;4.88;3.33;;;;;;;;;;5051847;28;20390;-90
2023/07/07 11:33:10;;;;;;;4.32;3.38;;;;;;;;;;5052133;28;20389;-91
2023/07/07 11:35:50;;;;;;;4.70;3.42;;;;;;;;;;5051988;28;20435;-91
2023/07/07 11:38:34;;;;;;;5.20;3.10;;;;;;;;;;5052397;28;20377;-91
2023/07/07 11:41:10;;;;;;;3.40;2.78;;;;;;;;;;5039527;28;20429;-89
2023/07/07 11:43:48;;;;;;;5.97;2.92;;;;;;;;;;5053863;28;20378;-91
2023/07/07 11:46:29;;;;;;;4.80;3.00;;;;;;;;;;5056497;28;20373;-91
2023/07/07 11:48:55;;;;;;;4.65;3.08;;;;;;;;;;5056037;28;20492;-90
2023/07/07 11:51:40;;;;;;;5.00;2.95;;;;;;;;;;5052154;28;20373;-91
2023/07/07 11:54:28;;;;;;;4.68;3.00;;;;;;;;;;5044272;28;20381;-90
2023/07/07 11:56:54;;;;;;;3.38;3.00;;;;;;;;;;5055582;28;20887;-91
2023/07/07 11:59:38;;;;;;;4.75;2.78;;;;;;;;;;5055668;28;20416;-90
2023/07/07 12:02:09;;;;;;;4.15;2.90;;;;;;;;;;5055434;28;20427;-90
2023/07/07 12:04:40;;;;;;;4.90;3.10;;;;;;;;;;5054026;28;20384;-91
2023/07/07 12:07:14;;;;;;;3.60;2.75;;;;;;;;;;5044540;28;20456;-91
2023/07/07 12:09:46;;;;;;;4.40;2.90;;;;;;;;;;5056343;28;20881;-91
2023/07/07 12:12:17;;;;;;;4.30;2.90;;;;;;;;;;5055804;28;20450;-91
2023/07/07 12:14:52;;;;;;;4.32;2.65;;;;;;;;;;5055810;28;20378;-92
2023/07/07 12:17:21;;;;;;;3.78;2.92;;;;;;;;;;5055565;28;20435;-91
2023/07/07 12:19:51;;;;;;;5.53;3.05;;;;;;;;;;5047502;28;21838;-91
2023/07/07 12:22:19;;;;;;;5.82;3.00;;;;;;;;;;5055255;28;20749;-92
2023/07/07 12:24:45;;;;;;;4.28;3.10;;;;;;;;;;5053838;28;20374;-90
2023/07/07 12:27:24;;;;;;;4.80;3.00;;;;;;;;;;5055367;28;20409;-91
2023/07/07 12:29:51;;;;;;;4.05;2.70;;;;;;;;;;5042728;28;20382;-92
2023/07/07 12:32:18;;;;;;;5.77;2.90;;;;;;;;;;5041117;28;20732;-91
2023/07/07 12:34:49;;;;;;;3.97;2.75;;;;;;;;;;5051859;28;20855;-91
2023/07/07 12:37:20;;;;;;;4.70;3.00;;;;;;;;;;5054673;28;20381;-90
2023/07/07 12:39:56;;;;;;;5.95;2.90;;;;;;;;;;5055887;28;20396;-91
2023/07/07 12:42:23;;;;;;;4.18;2.85;;;;;;;;;;5056923;28;20986;-91
2023/07/07 12:44:50;;;;;;;3.92;2.83;;;;;;;;;;5054275;28;20475;-91
2023/07/07 12:47:26;;;;;;;5.45;3.38;;;;;;;;;;5054394;28;20413;-90
2023/07/07 12:50:00;;;;;;;5.53;2.90;;;;;;;;;;5047661;28;20432;-92
2023/07/07 12:52:27;;;;;;;4.28;2.92;;;;;;;;;;5052462;28;20396;-91
2023/07/07 12:54:54;;;;;;;5.18;3.20;;;;;;;;;;5048975;28;20776;-93
2023/07/07 12:57:26;;;;;;;6.70;3.17;;;;;;;;;;5049299;28;21001;-91
2023/07/07 12:59:52;;;;;;;5.75;3.35;;;;;;;;;;5054572;28;20843;-89
2023/07/07 13:02:20;;;;;;;4.85;3.25;;;;;;;;;;5054911;28;20423;-89
2023/07/07 13:04:51;;;;;;;4.37;3.10;;;;;;;;;;5054415;28;20748;-90
2023/07/07 13:07:21;;;;;;;5.45;3.15;;;;;;;;;;5054341;28;20905;-89
2023/07/07 13:09:48;;;;;;;3.67;3.05;;;;;;;;;;5054794;28;20390;-87
2023/07/07 13:12:38;;;;;;;5.18;3.70;;;;;;;;;;5050552;28;20462;-90
2023/07/07 13:15:10;;;;;;;4.45;3.10;;;;;;;;;;5044893;28;20393;-88
2023/07/07 13:17:36;;;;;;;4.60;3.10;;;;;;;;;;5052798;28;20882;-88
2023/07/07 13:20:04;;;;;;;5.33;3.23;;;;;;;;;;5052569;28;20390;-89
2023/07/07 13:22:42;;;;;;;3.22;2.88;;;;;;;;;;5048507;28;20411;-90
2023/07/07 13:25:17;;;;;;;4.93;3.33;;;;;;;;;;5054081;28;20430;-89
2023/07/07 13:27:43;;;;;;;5.73;3.80;;;;;;;;;;5050066;28;20436;-87
2023/07/07 13:30:26;;;;;;;8.77;4.23;;;;;;;;;;5053815;28;20369;-88
2023/07/07 13:32:55;;;;;;;8.70;4.75;;;;;;;;;;5054005;28;20376;-89
2023/07/07 13:35:22;;;;;;;5.88;4.05;;;;;;;;;;5053965;28;20778;-89
2023/07/07 13:37:48;;;;;;;5.90;3.90;;;;;;;;;;5051418;28;20382;-88
2023/07/07 13:40:15;;;;;;;5.78;3.88;;;;;;;;;;5053641;28;20890;-88
2023/07/07 13:42:44;;;;;;;5.75;3.70;;;;;;;;;;5047849;28;20435;-84
2023/07/07 13:45:14;;;;;;;4.80;3.28;;;;;;;;;;5050394;28;20396;-87
2023/07/07 13:47:41;;;;;;;7.57;3.78;;;;;;;;;;5052345;28;20409;-88
2023/07/07 13:50:12;;;;;;;5.82;3.78;;;;;;;;;;5043966;28;20385;-87
2023/07/07 13:52:42;;;;;;;5.50;3.42;;;;;;;;;;5053259;28;20431;-88
2023/07/07 13:55:11;;;;;;;6.03;3.55;;;;;;;;;;5051292;28;20806;-87
2023/07/07 13:57:38;;;;;;;4.85;3.17;;;;;;;;;;5053201;28;20735;-88
2023/07/07 14:00:05;;;;;;;5.40;3.40;;;;;;;;;;5052997;28;20417;-87
2023/07/07 14:02:31;;;;;;;4.93;3.40;;;;;;;;;;5053284;28;20388;-87
2023/07/07 14:05:04;;;;;;;5.53;3.40;;;;;;;;;;5052937;28;20409;-88
2023/07/07 14:07:35;;;;;;;5.72;3.30;;;;;;;;;;5051889;28;20966;-88
2023/07/07 14:10:01;;;;;;;5.82;3.10;;;;;;;;;;5053086;28;20378;-87
2023/07/07 14:12:28;;;;;;;5.80;3.08;;;;;;;;;;5052718;28;20374;-87
2023/07/07 14:14:56;;;;;;;4.72;3.58;;;;;;;;;;5053944;28;20389;-86
2023/07/07 14:17:25;;;;;;;6.22;3.15;;;;;;;;;;5052699;28;20396;-88
2023/07/07 14:20:10;;;;;;;4.32;3.20;;;;;;;;;;5052550;28;20434;-88
2023/07/07 14:22:36;;;;;;;5.10;3.22;;;;;;;;;;5052536;28;20385;-88
2023/07/07 14:25:03;;;;;;;5.07;3.47;;;;;;;;;;5052628;28;20392;-86
2023/07/07 14:27:31;;;;;;;4.47;3.40;;;;;;;;;;5052620;28;20497;-88
2023/07/07 14:29:57;;;;;;;7.73;3.33;;;;;;;;;;5052476;28;20386;-87
2023/07/07 14:32:26;;;;;;;5.65;3.17;;;;;;;;;;5052589;28;20388;-88
2023/07/07 14:34:57;;;;;;;3.53;3.17;;;;;;;;;;5052431;28;20451;-87
2023/07/07 14:37:26;;;;;;;4.72;3.20;;;;;;;;;;5053245;28;20700;-88
2023/07/07 14:39:54;;;;;;;5.97;3.50;;;;;;;;;;5050929;28;20794;-88
2023/07/07 14:42:25;;;;;;;4.38;3.33;;;;;;;;;;5052614;28;20388;-87
2023/07/07 14:44:52;;;;;;;5.28;3.10;;;;;;;;;;5052234;28;20921;-87
2023/07/07 14:47:24;;;;;;;3.88;2.92;;;;;;;;;;5052268;28;20441;-88
2023/07/07 14:49:50;;;;;;;5.50;3.08;;;;;;;;;;5052163;28;20381;-88
2023/07/07 14:52:25;;;;;;;4.75;3.28;;;;;;;;;;5048178;28;20495;-87